createdAt,value
2022-11-15T00:02:30.154Z,9.20
2022-11-15T00:05:25.527Z,9.00
2022-11-15T00:08:21.404Z,8.60
2022-11-15T00:11:21.869Z,7.90
2022-11-15T00:14:18.192Z,9.00
2022-11-15T00:17:13.839Z,8.60
2022-11-15T00:20:12.856Z,9.50
2022-11-15T00:23:09.323Z,7.90
2022-11-15T00:26:08.674Z,8.00
2022-11-15T00:29:03.290Z,9.80
2022-11-15T00:31:58.589Z,8.70
2022-11-15T00:34:54.320Z,8.20
2022-11-15T00:37:49.421Z,8.10
2022-11-15T00:40:44.160Z,8.20
2022-11-15T00:43:41.207Z,7.70
2022-11-15T00:46:36.689Z,7.30
2022-11-15T00:49:32.311Z,8.20
2022-11-15T00:52:27.751Z,7.80
2022-11-15T00:55:24.363Z,8.00
2022-11-15T00:58:19.979Z,7.40
2022-11-15T01:01:20.431Z,7.10
2022-11-15T01:04:15.590Z,6.90
2022-11-15T01:07:11.717Z,7.20
2022-11-15T01:10:07.145Z,7.00
2022-11-15T01:13:03.491Z,6.80
2022-11-15T01:15:59.759Z,7.30
2022-11-15T01:18:55.323Z,7.20
2022-11-15T01:21:54.359Z,7.40
2022-11-15T01:24:51.114Z,7.10
2022-11-15T01:27:46.044Z,6.90
2022-11-15T01:30:41.747Z,7.10
2022-11-15T01:33:38.309Z,7.20
2022-11-15T01:36:33.216Z,7.20
2022-11-15T01:39:29.489Z,6.90
2022-11-15T01:42:25.904Z,7.20
2022-11-15T01:45:22.898Z,7.10
2022-11-15T01:48:20.333Z,7.50
2022-11-15T01:51:21.053Z,7.60
2022-11-15T01:54:23.032Z,6.90
2022-11-15T01:57:20.375Z,6.10
2022-11-15T02:00:22.777Z,7.10
2022-11-15T02:03:19.554Z,6.10
2022-11-15T02:06:17.063Z,5.80
2022-11-15T02:09:13.169Z,6.70
2022-11-15T02:12:11.801Z,6.40
2022-11-15T02:15:08.828Z,6.70
2022-11-15T02:18:26.864Z,6.50
2022-11-15T02:21:38.311Z,5.90
2022-11-15T02:25:05.024Z,5.90
2022-11-15T02:28:42.954Z,5.30
2022-11-15T02:31:49.748Z,5.30
2022-11-15T02:35:00.241Z,6.20
2022-11-15T02:38:10.552Z,7.20
2022-11-15T02:41:12.433Z,6.20
2022-11-15T02:44:18.109Z,7.00
2022-11-15T02:47:19.905Z,6.20
2022-11-15T02:50:19.691Z,6.30
2022-11-15T02:53:17.829Z,5.50
2022-11-15T02:56:15.925Z,5.80
2022-11-15T02:59:49.900Z,6.20
2022-11-15T03:03:14.941Z,5.60
2022-11-15T03:06:27.411Z,6.10
2022-11-15T03:09:37.577Z,6.00
2022-11-15T03:12:49.507Z,5.70
2022-11-15T03:15:55.737Z,6.40
2022-11-15T03:18:58.051Z,6.20
2022-11-15T03:21:55.090Z,6.20
2022-11-15T03:24:55.705Z,6.70
2022-11-15T03:28:00.158Z,6.50
2022-11-15T03:30:58.621Z,6.20
2022-11-15T03:33:57.332Z,6.00
2022-11-15T03:36:55.111Z,6.20
2022-11-15T03:39:50.994Z,5.30
2022-11-15T03:42:57.972Z,5.20
2022-11-15T03:46:00.649Z,4.80
2022-11-15T03:49:04.186Z,4.40
2022-11-15T03:52:03.065Z,4.70
2022-11-15T03:55:00.625Z,4.70
2022-11-15T03:58:00.009Z,4.90
2022-11-15T04:00:55.730Z,5.00
2022-11-15T04:03:50.931Z,5.10
2022-11-15T04:06:46.432Z,4.80
2022-11-15T04:10:01.769Z,4.90
2022-11-15T04:12:56.659Z,4.50
2022-11-15T04:15:53.210Z,4.80
2022-11-15T04:19:10.580Z,4.60
2022-11-15T04:22:21.855Z,3.80
2022-11-15T04:25:21.976Z,4.50
2022-11-15T04:28:18.040Z,4.10
2022-11-15T04:31:14.427Z,4.30
2022-11-15T04:34:10.183Z,4.80
2022-11-15T04:37:17.283Z,5.20
2022-11-15T04:40:16.644Z,5.40
2022-11-15T04:43:12.365Z,4.90
2022-11-15T04:46:08.692Z,5.00
2022-11-15T04:49:03.805Z,4.60
2022-11-15T04:51:58.772Z,4.60
2022-11-15T04:54:59.776Z,4.90
2022-11-15T04:58:06.525Z,4.90
2022-11-15T05:01:01.889Z,5.00
2022-11-15T05:04:13.516Z,5.20
2022-11-15T05:07:09.497Z,5.40
2022-11-15T05:10:04.332Z,5.40
2022-11-15T05:12:59.056Z,5.90
2022-11-15T05:15:53.650Z,4.90
2022-11-15T05:18:49.727Z,5.50
2022-11-15T05:21:45.116Z,5.20
2022-11-15T05:24:39.837Z,4.90
2022-11-15T05:27:36.194Z,5.50
2022-11-15T05:30:31.339Z,5.60
2022-11-15T05:33:27.225Z,4.50
2022-11-15T05:36:31.260Z,4.10
2022-11-15T05:39:27.137Z,4.90
2022-11-15T05:42:23.035Z,5.20
2022-11-15T05:45:23.912Z,5.00
2022-11-15T05:48:23.457Z,8.10
2022-11-15T05:51:20.867Z,8.10
2022-11-15T05:54:15.908Z,8.40
2022-11-15T05:57:11.997Z,8.30
2022-11-15T06:00:09.530Z,9.20
2022-11-15T06:03:04.195Z,9.50
2022-11-15T06:05:59.077Z,10.20
2022-11-15T06:08:53.547Z,10.80
2022-11-15T06:11:49.188Z,9.50
2022-11-15T06:14:43.969Z,8.30
2022-11-15T06:17:39.938Z,8.70
2022-11-15T06:20:36.035Z,9.20
2022-11-15T06:23:31.870Z,9.10
2022-11-15T06:26:27.083Z,9.00
2022-11-15T06:29:22.749Z,10.80
2022-11-15T06:32:18.864Z,10.30
2022-11-15T06:35:17.798Z,11.20
2022-11-15T06:38:15.022Z,11.30
2022-11-15T06:41:13.922Z,12.00
2022-11-15T06:44:09.876Z,13.40
2022-11-15T06:47:04.773Z,12.60
2022-11-15T06:50:00.720Z,11.70
2022-11-15T06:52:55.687Z,12.00
2022-11-15T06:55:55.228Z,12.70
2022-11-15T06:58:50.503Z,12.30
2022-11-15T07:01:45.782Z,10.10
2022-11-15T07:04:41.218Z,9.90
2022-11-15T07:07:37.045Z,12.00
2022-11-15T07:10:33.075Z,11.60
2022-11-15T07:13:30.970Z,11.00
2022-11-15T07:16:26.169Z,12.20
2022-11-15T07:19:21.323Z,11.40
2022-11-15T07:22:16.039Z,10.50
2022-11-15T07:25:14.421Z,8.70
2022-11-15T07:28:09.680Z,8.40
2022-11-15T07:31:08.408Z,7.30
2022-11-15T07:34:03.452Z,6.40
2022-11-15T07:36:58.849Z,7.70
2022-11-15T07:39:54.562Z,7.50
2022-11-15T07:42:55.424Z,9.20
2022-11-15T07:45:58.893Z,11.70
2022-11-15T07:48:54.344Z,11.00
2022-11-15T07:51:49.521Z,10.60
2022-11-15T07:54:44.289Z,10.50
2022-11-15T07:57:39.999Z,13.20
2022-11-15T08:00:35.652Z,11.20
2022-11-15T08:03:30.978Z,10.30
2022-11-15T08:06:27.235Z,10.50
2022-11-15T08:09:22.568Z,10.00
2022-11-15T08:12:18.406Z,9.40
2022-11-15T08:15:19.840Z,10.00
2022-11-15T08:18:16.365Z,9.50
2022-11-15T08:21:18.250Z,10.70
2022-11-15T08:24:16.560Z,10.70
2022-11-15T08:27:16.193Z,10.70
2022-11-15T08:30:14.622Z,12.30
2022-11-15T08:33:09.828Z,12.30
2022-11-15T08:36:07.392Z,11.00
2022-11-15T08:39:02.582Z,10.60
2022-11-15T08:41:57.378Z,12.60
2022-11-15T08:44:51.796Z,10.90
2022-11-15T08:47:52.780Z,11.20
2022-11-15T08:50:48.840Z,11.70
2022-11-15T08:53:44.902Z,12.30
2022-11-15T08:56:39.121Z,12.40
2022-11-15T08:59:34.086Z,12.30
2022-11-15T09:02:29.740Z,11.40
2022-11-15T09:05:25.698Z,12.10
2022-11-15T09:08:48.672Z,12.20
2022-11-15T09:11:35.858Z,12.40
2022-11-15T09:14:30.612Z,11.80
2022-11-15T09:17:25.373Z,9.90
2022-11-15T09:20:21.656Z,12.80
2022-11-15T09:23:16.296Z,13.80
2022-11-15T09:26:12.194Z,13.80
2022-11-15T09:29:10.371Z,12.40
2022-11-15T09:32:05.289Z,11.90
2022-11-15T09:35:00.028Z,10.90
2022-11-15T09:37:56.680Z,11.90
2022-11-15T09:40:56.997Z,11.80
2022-11-15T09:44:13.935Z,12.60
2022-11-15T09:47:45.715Z,11.90
2022-11-15T09:50:54.778Z,12.10
2022-11-15T09:54:30.258Z,11.40
2022-11-15T09:56:44.143Z,10.90
2022-11-15T09:59:43.704Z,11.90
2022-11-15T10:02:44.823Z,11.00
2022-11-15T10:05:26.836Z,11.20
2022-11-15T10:08:14.568Z,9.90
2022-11-15T10:11:15.731Z,11.30
2022-11-15T10:13:55.997Z,11.40
2022-11-15T10:17:23.105Z,12.20
2022-11-15T10:20:18.606Z,14.90
2022-11-15T10:22:58.511Z,14.90
2022-11-15T10:25:36.158Z,15.50
2022-11-15T10:28:21.427Z,15.20
2022-11-15T10:31:02.001Z,14.20
2022-11-15T10:33:44.454Z,15.00
2022-11-15T10:36:30.160Z,18.80
2022-11-15T10:39:09.227Z,18.90
2022-11-15T10:41:47.296Z,16.30
2022-11-15T10:44:48.978Z,13.10
2022-11-15T10:47:39.873Z,12.90
2022-11-15T10:50:37.584Z,12.90
2022-11-15T10:53:29.310Z,12.10
2022-11-15T10:56:24.000Z,13.60
2022-11-15T10:59:02.726Z,12.50
2022-11-15T11:01:51.487Z,13.30
2022-11-15T11:04:28.512Z,12.30
2022-11-15T11:07:22.898Z,11.70
2022-11-15T11:10:29.072Z,11.50
2022-11-15T11:13:25.473Z,11.70
2022-11-15T11:16:17.629Z,11.20
2022-11-15T11:19:06.495Z,12.50
2022-11-15T11:21:59.841Z,12.40
2022-11-15T11:24:47.766Z,12.50
2022-11-15T11:27:40.749Z,13.10
2022-11-15T11:30:26.693Z,14.40
2022-11-15T11:33:17.157Z,12.80
2022-11-15T11:36:08.830Z,12.50
2022-11-15T11:39:10.852Z,11.90
2022-11-15T11:42:03.366Z,11.00
2022-11-15T11:44:51.175Z,11.60
2022-11-15T11:47:34.872Z,10.90
2022-11-15T11:50:22.047Z,12.20
2022-11-15T11:53:08.367Z,12.60
2022-11-15T11:55:48.736Z,12.80
2022-11-15T11:58:38.002Z,12.40
2022-11-15T12:01:38.887Z,13.10
2022-11-15T12:04:24.284Z,11.50
2022-11-15T12:07:11.011Z,11.50
2022-11-15T12:09:55.299Z,11.00
2022-11-15T12:12:41.626Z,11.40
2022-11-15T12:15:26.425Z,10.70
2022-11-15T12:18:03.790Z,11.40
2022-11-15T12:20:51.995Z,11.30
2022-11-15T12:23:32.032Z,12.30
2022-11-15T12:26:13.895Z,11.30
2022-11-15T12:29:07.386Z,10.80
2022-11-15T12:31:49.449Z,12.70
2022-11-15T12:34:55.714Z,12.40
2022-11-15T12:37:59.082Z,10.40
2022-11-15T12:41:20.780Z,12.00
2022-11-15T12:44:01.689Z,11.60
2022-11-15T12:47:25.296Z,12.10
2022-11-15T12:50:01.910Z,11.50
2022-11-15T12:52:38.966Z,12.60
2022-11-15T12:55:38.091Z,15.00
2022-11-15T12:58:47.425Z,13.70
2022-11-15T13:01:59.948Z,12.30
2022-11-15T13:04:37.769Z,11.90
2022-11-15T13:07:47.349Z,12.50
2022-11-15T13:10:37.831Z,12.50
2022-11-15T13:13:35.738Z,17.90
2022-11-15T13:16:13.300Z,15.40
2022-11-15T13:18:58.671Z,14.90
2022-11-15T13:21:53.998Z,14.30
2022-11-15T13:24:32.207Z,13.60
2022-11-15T13:27:26.203Z,15.40
2022-11-15T13:30:03.500Z,13.50
2022-11-15T13:32:42.271Z,15.00
2022-11-15T13:35:30.730Z,16.20
2022-11-15T13:38:21.553Z,14.20
2022-11-15T13:40:58.599Z,13.70
2022-11-15T13:43:42.304Z,14.40
2022-11-15T13:46:23.041Z,13.30
2022-11-15T13:49:04.147Z,12.60
2022-11-15T13:51:46.888Z,13.80
2022-11-15T13:54:32.896Z,13.90
2022-11-15T13:57:18.551Z,13.60
2022-11-15T13:59:59.441Z,13.60
2022-11-15T14:02:39.793Z,12.20
2022-11-15T14:05:24.155Z,14.60
2022-11-15T14:08:24.448Z,14.70
2022-11-15T14:14:20.693Z,15.40
2022-11-15T14:16:58.658Z,15.10
2022-11-15T14:19:46.470Z,14.40
2022-11-15T14:22:29.648Z,13.80
2022-11-15T14:25:23.725Z,14.70
2022-11-15T14:28:38.458Z,14.70
2022-11-15T14:31:20.286Z,14.70
2022-11-15T14:33:55.840Z,14.00
2022-11-15T14:36:32.800Z,14.20
2022-11-15T14:39:11.817Z,14.00
2022-11-15T14:41:48.400Z,13.20
2022-11-15T14:44:25.611Z,13.40
2022-11-15T14:47:03.003Z,13.00
2022-11-15T14:49:39.629Z,13.00
2022-11-15T14:52:35.741Z,12.90
2022-11-15T14:55:25.645Z,14.10
2022-11-15T14:58:03.432Z,13.40
2022-11-15T15:00:41.844Z,12.90
2022-11-15T15:03:19.640Z,12.30
2022-11-15T15:05:57.739Z,13.30
2022-11-15T15:08:35.034Z,14.00
2022-11-15T15:11:20.226Z,13.60
2022-11-15T15:13:58.355Z,13.70
2022-11-15T15:16:35.161Z,12.90
2022-11-15T15:19:12.399Z,13.00
2022-11-15T15:21:48.814Z,13.80
2022-11-15T15:24:26.027Z,14.60
2022-11-15T15:27:03.283Z,15.70
2022-11-15T15:29:40.361Z,16.20
2022-11-15T15:32:17.780Z,14.20
2022-11-15T15:34:53.951Z,13.00
2022-11-15T15:37:34.108Z,14.60
2022-11-15T15:40:19.018Z,15.60
2022-11-15T15:42:55.452Z,16.70
2022-11-15T15:45:34.494Z,15.10
2022-11-15T15:48:12.060Z,14.60
2022-11-15T15:50:50.475Z,15.30
2022-11-15T15:53:27.794Z,16.50
2022-11-15T15:56:04.482Z,17.30
2022-11-15T15:58:43.917Z,15.80
2022-11-15T16:01:21.557Z,16.50
2022-11-15T16:03:58.535Z,16.30
2022-11-15T16:06:47.650Z,16.40
2022-11-15T16:09:45.971Z,17.60
2022-11-15T16:12:21.969Z,18.80
2022-11-15T16:15:02.268Z,16.50
2022-11-15T16:17:41.760Z,15.70
2022-11-15T16:20:32.939Z,15.60
2022-11-15T16:23:11.493Z,16.60
2022-11-15T16:25:51.812Z,17.30
2022-11-15T16:28:31.902Z,17.10
2022-11-15T16:31:16.312Z,15.00
2022-11-15T16:33:53.528Z,17.10
2022-11-15T16:36:33.792Z,17.70
2022-11-15T16:39:14.247Z,15.10
2022-11-15T16:41:51.425Z,15.00
2022-11-15T16:44:28.291Z,14.20
2022-11-15T16:47:06.250Z,14.10
2022-11-15T16:49:46.760Z,15.60
2022-11-15T16:52:23.988Z,14.70
2022-11-15T16:55:01.941Z,15.50
2022-11-15T16:57:39.872Z,17.50
2022-11-15T17:00:22.866Z,18.70
2022-11-15T17:03:00.159Z,16.10
2022-11-15T17:05:37.031Z,20.50
2022-11-15T17:08:15.754Z,24.40
2022-11-15T17:10:53.590Z,21.70
2022-11-15T17:13:32.162Z,21.90
2022-11-15T17:16:19.630Z,20.10
2022-11-15T17:18:59.016Z,18.10
2022-11-15T17:21:35.834Z,18.90
2022-11-15T17:24:14.005Z,16.70
2022-11-15T17:26:52.646Z,17.80
2022-11-15T17:29:30.723Z,17.30
2022-11-15T17:32:08.540Z,17.10
2022-11-15T17:34:44.778Z,16.80
2022-11-15T17:37:21.690Z,16.90
2022-11-15T17:39:57.846Z,19.60
2022-11-15T17:42:35.052Z,18.00
2022-11-15T17:45:15.827Z,18.40
2022-11-15T17:47:55.111Z,19.00
2022-11-15T17:50:32.273Z,19.60
2022-11-15T17:53:10.290Z,18.90
2022-11-15T17:55:48.597Z,18.70
2022-11-15T17:58:25.358Z,18.80
2022-11-15T18:01:10.595Z,19.60
2022-11-15T18:03:48.421Z,19.70
2022-11-15T18:06:26.179Z,20.10
2022-11-15T18:09:02.591Z,19.10
2022-11-15T18:11:46.519Z,19.10
2022-11-15T18:14:25.535Z,18.30
2022-11-15T18:17:02.667Z,18.90
2022-11-15T18:19:39.292Z,19.30
2022-11-15T18:22:15.732Z,19.90
2022-11-15T18:24:52.344Z,20.00
2022-11-15T18:27:29.216Z,20.00
2022-11-15T18:30:07.333Z,19.10
2022-11-15T18:32:44.126Z,19.70
2022-11-15T18:35:23.053Z,19.70
2022-11-15T18:38:00.335Z,20.30
2022-11-15T18:40:41.536Z,19.50
2022-11-15T18:43:18.721Z,20.50
2022-11-15T18:45:56.569Z,20.30
2022-11-15T18:48:36.961Z,20.70
2022-11-15T18:51:16.074Z,20.90
2022-11-15T18:53:54.884Z,21.00
2022-11-15T18:56:34.068Z,20.20
2022-11-15T18:59:11.291Z,19.90
2022-11-15T19:01:50.107Z,22.10
2022-11-15T19:04:28.130Z,20.30
2022-11-15T19:07:04.937Z,21.50
2022-11-15T19:09:41.250Z,21.90
2022-11-15T19:12:18.572Z,22.40
2022-11-15T19:14:55.306Z,20.50
2022-11-15T19:17:32.986Z,21.10
2022-11-15T19:20:12.447Z,20.00
2022-11-15T19:22:49.656Z,20.00
2022-11-15T19:25:29.253Z,20.50
2022-11-15T19:28:06.457Z,21.50
2022-11-15T19:30:43.252Z,20.30
2022-11-15T19:33:25.090Z,20.40
2022-11-15T19:36:13.448Z,22.00
2022-11-15T19:38:50.704Z,23.70
2022-11-15T19:41:28.581Z,23.90
2022-11-15T19:44:05.277Z,21.90
2022-11-15T19:46:42.592Z,22.70
2022-11-15T19:49:20.947Z,21.70
2022-11-15T19:51:57.610Z,19.90
2022-11-15T19:54:36.392Z,21.90
2022-11-15T19:57:12.973Z,23.70
2022-11-15T19:59:49.299Z,24.80
2022-11-15T20:02:27.244Z,22.60
2022-11-15T20:05:05.174Z,21.80
2022-11-15T20:07:42.592Z,23.00
2022-11-15T20:10:21.648Z,20.90
2022-11-15T20:12:58.508Z,21.90
2022-11-15T20:15:35.553Z,22.60
2022-11-15T20:18:11.954Z,21.40
2022-11-15T20:20:50.034Z,23.90
2022-11-15T20:23:27.693Z,21.50
2022-11-15T20:26:05.256Z,22.00
2022-11-15T20:28:44.557Z,19.90
2022-11-15T20:31:22.096Z,24.60
2022-11-15T20:33:59.920Z,21.50
2022-11-15T20:36:35.926Z,22.00
2022-11-15T20:39:13.815Z,20.40
2022-11-15T20:41:50.550Z,20.30
2022-11-15T20:44:27.932Z,20.20
2022-11-15T20:47:06.177Z,22.30
2022-11-15T20:49:43.886Z,19.70
2022-11-15T20:52:22.523Z,21.60
2022-11-15T20:54:58.851Z,21.90
2022-11-15T20:57:35.567Z,21.70
2022-11-15T21:00:22.371Z,22.10
2022-11-15T21:02:59.217Z,24.30
2022-11-15T21:05:36.656Z,23.90
2022-11-15T21:08:14.561Z,25.20
2022-11-15T21:11:13.875Z,23.30
2022-11-15T21:13:50.306Z,21.90
2022-11-15T21:16:28.810Z,21.60
2022-11-15T21:19:05.699Z,21.70
2022-11-15T21:21:44.153Z,20.70
2022-11-15T21:24:22.452Z,20.50
2022-11-15T21:26:59.096Z,22.50
2022-11-15T21:29:41.374Z,21.70
2022-11-15T21:32:17.859Z,21.80
2022-11-15T21:34:54.830Z,27.70
2022-11-15T21:37:32.331Z,22.20
2022-11-15T21:40:12.875Z,21.50
2022-11-15T21:42:51.094Z,22.20
2022-11-15T21:45:28.095Z,20.70
2022-11-15T21:48:05.153Z,20.30
2022-11-15T21:50:41.356Z,19.10
2022-11-15T21:53:21.509Z,20.50
2022-11-15T21:55:57.943Z,18.80
2022-11-15T21:58:35.333Z,19.70
2022-11-15T22:01:30.977Z,18.40
2022-11-15T22:04:08.832Z,19.30
2022-11-15T22:06:46.450Z,20.60
2022-11-15T22:09:24.690Z,18.30
2022-11-15T22:12:02.152Z,19.90
2022-11-15T22:14:38.729Z,19.60
2022-11-15T22:17:16.781Z,19.60
2022-11-15T22:19:54.536Z,20.70
2022-11-15T22:22:35.351Z,20.30
2022-11-15T22:25:14.338Z,19.80
2022-11-15T22:27:51.194Z,19.40
2022-11-15T22:30:29.129Z,19.80
2022-11-15T22:33:06.438Z,18.80
2022-11-15T22:35:46.362Z,19.50
2022-11-15T22:38:23.083Z,20.10
2022-11-15T22:41:00.531Z,19.40
2022-11-15T22:43:37.512Z,19.30
2022-11-15T22:46:14.771Z,19.30
2022-11-15T22:48:52.307Z,23.20
2022-11-15T22:51:33.946Z,21.20
2022-11-15T22:54:11.732Z,22.60
2022-11-15T22:56:49.490Z,19.90
2022-11-15T22:59:26.376Z,20.90
2022-11-15T23:02:03.521Z,19.70
2022-11-15T23:04:39.649Z,19.80
2022-11-15T23:07:16.868Z,21.90
2022-11-15T23:09:55.407Z,21.80
2022-11-15T23:12:48.459Z,20.00
2022-11-15T23:15:29.579Z,19.80
2022-11-15T23:18:10.026Z,20.90
2022-11-15T23:20:47.420Z,20.20
2022-11-15T23:23:24.862Z,20.30
2022-11-15T23:26:09.020Z,19.00
2022-11-15T23:28:45.557Z,19.90
2022-11-15T23:31:39.826Z,20.60
2022-11-15T23:34:22.121Z,19.10
2022-11-15T23:36:59.301Z,18.60
2022-11-15T23:39:35.864Z,17.70
2022-11-15T23:42:20.429Z,15.60
2022-11-15T23:44:58.133Z,16.90
2022-11-15T23:47:38.952Z,16.40
2022-11-15T23:50:19.355Z,17.00
2022-11-15T23:52:56.602Z,16.50
2022-11-15T23:55:34.505Z,14.70
2022-11-15T23:58:11.984Z,16.70
